Latest Coastal Weather Observations for Larapuna (Eddystone Point)

IDT60701

Issued at 2:22 am EST Thursday 28 May 2020 (issued every 10 minutes, with the page automatically refreshed every 10 minutes)

About coastal observations | Map of coastal stations | Coastal observations for TAS | Marine services | Other Formats
Station Details ID: 092045 Name: LARAPUNA (EDDYSTONE POINT) Lat: -40.99 Lon: 148.35 Height: 19.7 m
Data from the previous 72 hours. | See also: Recent months at Larapuna (Eddystone Point)
Date/Time
EST
Wind Sea
Height
m
Swell Vis
km
Cloud Weather Temp
°C
Press
hPa
Rain since
9am
mm
Dir  Spd
kts
Gust
kts
Height
m
Period
s
Dir
28/02:00am WNW 7 8 - - - - - - - 12.4 1017.5 0.0
28/01:30am WNW 7 8 - - - - - - - 12.5 1017.6 0.0
28/01:00am WNW 6 8 - - - - - - - 12.9 1017.6 0.0
28/12:30am NW 7 10 - - - - - - - 13.2 1017.9 0.0
28/12:00am NNW 8 9 - - - - - - - 13.1 1017.9 0.0
 
Date/Time
EST
Wind Sea
Height
m
Swell Vis
km
Cloud Weather Temp
°C
Press
hPa
Rain since
9am
mm
Dir  Spd
kts
Gust
kts
Height
m
Period
s
Dir
27/11:30pm NW 10 13 - - - - - - - 13.0 1018.2 0.0
27/11:00pm NW 6 8 - - - - - - - 12.9 1018.0 0.0
27/10:30pm NW 8 10 - - - - - - - 12.9 1018.2 0.0
27/10:00pm NNW 8 10 - - - - - - - 13.4 1018.3 0.0
27/09:30pm N 8 10 - - - - - - - 13.6 1018.3 0.0
27/09:00pm WNW 7 9 - - - - - - - 13.0 1018.7 0.0
27/08:30pm NW 5 7 - - - - - - - 13.5 1018.6 0.0
27/08:00pm NNW 9 13 - - - - - - - 14.2 1018.7 0.0
27/07:30pm N 11 14 - - - - - - - 14.2 1018.6 0.0
27/07:00pm N 12 15 - - - - - - - 14.3 1018.6 0.0
27/06:30pm N 13 16 - - - - - - - 14.5 1018.5 0.0
27/06:00pm N 12 15 - - - - - - - 14.3 1018.6 0.0
27/05:30pm N 12 15 - - - - - - - 14.4 1018.6 0.0
27/05:00pm N 12 14 - - - - - - - 14.4 1018.6 0.0
27/04:30pm N 12 15 - - - - - - - 14.7 1018.7 0.0
27/04:00pm N 11 13 - - - - - - - 15.2 1018.7 0.0
27/03:30pm N 11 14 - - - - - - - 15.6 1018.8 0.0
27/03:00pm N 12 15 - - - - - - - 15.9 1018.8 0.0
27/02:30pm N 13 16 - - - - - - - 17.8 1019.0 0.0
27/02:00pm N 15 18 - - - - - - - 17.6 1019.1 0.0
27/01:30pm N 15 18 - - - - - - - 16.7 1019.3 0.0
27/01:00pm N 16 19 - - - - - - - 16.0 1019.6 0.0
27/12:30pm N 13 17 - - - - - - - 16.2 1020.1 0.0
27/12:00pm N 13 16 - - - - - - - 16.7 1020.6 0.0
27/11:30am N 13 16 - - - - - - - 17.0 1021.0 0.0
27/11:00am N 11 14 - - - - - - - 18.0 1021.6 0.0
27/10:30am N 8 11 - - - - - - - 18.3 1022.0 0.0
27/10:00am N 9 11 - - - - - - - 17.8 1022.0 0.0
27/09:30am N 9 11 - - - - - - - 16.5 1022.2 0.0
27/09:00am NNW 7 9 - - - - - - - 15.4 1022.4 0.0
27/08:30am N 11 13 - - - - - - - 15.5 1022.5 0.0
27/08:00am N 10 13 - - - - - - - 14.6 1022.4 0.0
27/07:30am N 12 15 - - - - - - - 14.1 1022.5 0.0
27/07:00am N 13 16 - - - - - - - 13.9 1022.2 0.0
27/06:30am NNE 12 14 - - - - - - - 13.9 1022.0 0.0
27/06:00am NNE 13 15 - - - - - - - 14.0 1022.0 0.0
27/05:30am NNE 12 14 - - - - - - - 13.9 1022.1 0.0
27/05:00am NNE 11 14 - - - - - - - 13.8 1022.2 0.0
27/04:30am NNE 11 14 - - - - - - - 13.6 1022.2 0.0
27/04:00am N 4 5 - - - - - - - 13.1 1022.5 0.0
27/03:30am N 6 9 - - - - - - - 13.9 1023.0 0.0
27/03:00am N 9 13 - - - - - - - 14.2 1023.2 0.0
27/02:30am NNE 10 13 - - - - - - - 14.1 1023.5 0.0
27/02:00am NNE 12 16 - - - - - - - 13.9 1023.6 0.0
27/01:30am N 10 13 - - - - - - - 13.7 1023.8 0.0
27/01:00am N 9 12 - - - - - - - 13.7 1024.0 0.0
27/12:30am N 8 11 - - - - - - - 13.2 1024.4 0.0
27/12:00am N 7 12 - - - - - - - 12.6 1024.8 0.0
 
Date/Time
EST
Wind Sea
Height
m
Swell Vis
km
Cloud Weather Temp
°C
Press
hPa
Rain since
9am
mm
Dir  Spd
kts
Gust
kts
Height
m
Period
s
Dir
26/11:30pm NW 4 5 - - - - - - - 11.5 1025.2 0.0
26/11:00pm W 4 5 - - - - - - - 11.6 1025.5 0.0
26/10:30pm WSW 6 7 - - - - - - - 11.6 1025.6 0.0
26/10:00pm W 6 7 - - - - - - - 11.8 1025.6 0.0
26/09:30pm NW 5 7 - - - - - - - 12.4 1025.7 0.0
26/09:00pm N 9 13 - - - - - - - 12.9 1025.9 0.0
26/08:30pm N 8 11 - - - - - - - 12.8 1025.9 0.0
26/08:00pm NNW 8 11 - - - - - - - 12.7 1025.8 0.0
26/07:30pm N 9 12 - - - - - - - 13.4 1025.8 0.0
26/07:00pm N 9 12 - - - - - - - 13.4 1025.7 0.0
26/06:30pm NNE 14 18 - - - - - - - 13.3 1025.6 0.0
26/06:00pm N 9 11 - - - - - - - 13.1 1025.7 0.0
26/05:30pm NNE 11 17 - - - - - - - 13.0 1025.6 0.0
26/05:00pm NNE 7 9 - - - - - - - 12.9 1025.4 0.0
26/04:30pm NE 7 9 - - - - - - - 12.8 1025.4 0.0
26/04:00pm NNE 8 14 - - - - - - - 13.2 1025.6 0.0
26/03:30pm NNE 9 13 - - - - - - - 13.4 1025.5 0.0
26/03:00pm N 8 11 - - - - - - - 13.7 1025.8 0.0
26/02:30pm NNE 9 13 - - - - - - - 13.9 1026.0 0.0
26/02:00pm N 9 12 - - - - - - - 13.9 1026.4 0.0
26/01:30pm NE 9 13 - - - - - - - 14.2 1026.8 0.0
26/01:00pm NNW 5 8 - - - - - - - 14.4 1027.0 0.0
26/12:30pm NNE 7 12 - - - - - - - 14.8 1027.5 0.0
26/12:00pm N 9 12 - - - - - - - 14.1 1027.8 0.0
26/11:30am NNE 9 13 - - - - - - - 14.2 1028.2 0.0
26/11:00am NE 5 7 - - - - - - - 14.6 1028.6 0.0
26/10:30am ENE 5 7 - - - - - - - 14.1 1028.8 0.0
26/10:00am E 7 11 - - - - - - - 13.8 1028.8 0.0
26/09:30am SE 6 9 - - - - - - - 13.3 1028.9 0.0
26/09:00am NE 7 9 - - - - - - - 12.8 1029.1 0.0
26/08:30am E 6 10 - - - - - - - 12.2 1029.0 0.0
26/08:00am ESE 5 11 - - - - - - - 11.7 1028.9 0.0
26/07:30am S 6 8 - - - - - - - 11.4 1028.9 0.0
26/07:00am SSW 6 7 - - - - - - - 11.5 1028.8 0.0
26/06:30am SSW 7 8 - - - - - - - 11.5 1028.6 0.0
26/06:00am SW 5 7 - - - - - - - 11.3 1028.3 0.0
26/05:30am SSE 4 7 - - - - - - - 11.4 1028.2 0.0
26/05:00am ESE 5 8 - - - - - - - 11.8 1028.1 0.0
26/04:30am E 8 11 - - - - - - - 12.0 1028.0 0.0
26/04:00am ENE 5 8 - - - - - - - 11.9 1027.8 0.0
26/03:30am SE 5 8 - - - - - - - 11.6 1028.0 0.0
26/03:00am E 5 6 - - - - - - - 11.6 1028.3 0.0
26/02:30am SE 5 7 - - - - - - - 11.6 1028.3 0.0
26/02:00am NNE 3 8 - - - - - - - 11.3 1028.3 0.0
26/01:30am SW 5 8 - - - - - - - 11.3 1028.2 0.0
26/01:00am S 4 6 - - - - - - - 11.6 1028.4 0.0
26/12:30am SSW 10 13 - - - - - - - 11.5 1028.4 0.0
26/12:00am S 10 12 - - - - - - - 11.4 1028.7 0.0
 
Date/Time
EST
Wind Sea
Height
m
Swell Vis
km
Cloud Weather Temp
°C
Press
hPa
Rain since
9am
mm
Dir  Spd
kts
Gust
kts
Height
m
Period
s
Dir
25/11:30pm S 11 14 - - - - - - - 11.4 1028.8 0.0
25/11:00pm S 13 16 - - - - - - - 11.4 1028.7 0.0
25/10:30pm SSW 9 13 - - - - - - - 11.3 1029.0 0.0
25/10:00pm S 12 15 - - - - - - - 11.3 1029.1 0.0
25/09:30pm SSW 12 15 - - - - - - - 11.1 1029.1 0.0
25/09:00pm SW 11 13 - - - - - - - 10.7 1029.2 0.0
25/08:30pm SSW 13 16 - - - - - - - 11.1 1029.1 0.0
25/08:00pm SSW 14 16 - - - - - - - 11.1 1028.9 0.0
25/07:30pm SSW 13 16 - - - - - - - 11.2 1028.6 0.0
25/07:00pm SSW 13 18 - - - - - - - 11.2 1028.4 0.0
25/06:30pm SSW 16 19 - - - - - - - 11.2 1028.0 0.0
25/06:00pm S 14 17 - - - - - - - 11.5 1027.6 0.0
25/05:30pm S 15 18 - - - - - - - 11.6 1027.2 0.0
25/05:00pm S 15 18 - - - - - - - 11.6 1026.9 0.0
25/04:30pm S 14 18 - - - - - - - 11.6 1026.8 0.0
25/04:00pm S 16 20 - - - - - - - 11.8 1026.6 0.0
25/03:30pm S 15 18 - - - - - - - 11.8 1026.4 0.0
25/03:00pm S 17 21 - - - - - - - 12.0 1026.3 0.0
25/02:30pm S 18 22 - - - - - - - 12.0 1026.2 0.0
25/02:00pm S 19 24 - - - - - - - 12.5 1026.3 0.0
25/01:30pm S 22 25 - - - - - - - 12.5 1026.3 0.0
25/01:00pm S 23 26 - - - - - - - 12.7 1026.3 0.0
25/12:30pm S 22 27 - - - - - - - 12.5 1026.6 0.0
25/12:00pm S 23 27 - - - - - - - 12.7 1026.9 0.0
25/11:30am S 23 29 - - - - - - - 12.2 1027.4 0.0
25/11:00am S 22 26 - - - - - - - 12.5 1027.4 0.0
25/10:30am S 22 27 - - - - - - - 12.2 1027.7 0.0
25/10:00am S 23 27 - - - - - - - 11.7 1027.5 0.0
25/09:30am S 22 26 - - - - - - - 11.2 1027.0 0.0
25/09:00am SSW 21 25 - - - - - - - 11.1 1026.7 0.0
25/08:30am SSW 21 24 - - - - - - - 10.4 1026.7 0.0
25/08:00am S 21 25 - - - - - - - 10.1 1026.5 0.0
25/07:30am S 21 27 - - - - - - - 10.0 1026.3 0.0
25/07:00am S 21 27 - - - - - - - 9.9 1026.0 0.0
25/06:30am SSW 22 26 - - - - - - - 10.0 1025.6 0.0
25/06:00am S 23 26 - - - - - - - 10.0 1025.3 0.0
25/05:30am S 23 28 - - - - - - - 10.2 1025.2 0.0
25/05:00am S 26 31 - - - - - - - 10.2 1024.9 0.0
25/04:30am S 24 29 - - - - - - - 10.4 1024.9 0.0
25/04:00am S 24 29 - - - - - - - 10.4 1024.8 0.0
25/03:30am S 25 30 - - - - - - - 10.2 1024.8 0.0
25/03:00am S 25 29 - - - - - - - 10.4 1024.8 0.0
25/02:30am S 25 30 - - - - - - - 10.4 1024.8 0.0

Other formats

Comma delimited format used in spreadsheet applications
http://www.bom.gov.au/fwo/IDT60701/IDT60701.94983.axf

JavaScript Object Notation format (JSON) in row-major order
http://www.bom.gov.au/fwo/IDT60701/IDT60701.94983.json

Data quality

Most of these data are generated automatically and are frequently updated. Quality checks on data are not normally performed. It is possible for incorrect values to appear. Refer to information at About Latest Weather Observations and please check the disclaimer before using these data.